馬公航空站 - ATIS

METAR RCQC 181030Z 03016KT 9999 SCT010 BKN021 16/11 Q1019 NOSIG RMK A3010=

站台狀態:Online
最後更新:2020-01-18 19:00:02